Terminal Aerodrome Forecast
Issued by NWS

Home | Current Version | Previous Version | Text Only | Print | Product List | Glossary On
Versions: 1 2 3 4 5 6 7 8 9 10 11 12 13 14 15 16 17 18 19 20 21 22
000
FTPA31 PHFO 022300
TAFOGG
TAF
PHOG 022328Z 0300/0324 05018G24KT P6SM SCT030 SCT050
     FM030500 05011KT P6SM SCT030 SCT050
     FM032000 05014G20KT P6SM SCT030 SCT050
      AMD LTD TO VIS AND WIND 0309/0316=

USA.gov is the U.S. government's official web portal to all federal, state and local government web resources and services.